Time;durP1;ratioP1;P1;durP2;ratioP2;P2;SDS_P1;SDS_P2;PMS_P1;PMS_P2;Temp;Humidity;BMP_temperature;BMP_pressure;BME280_temperature;BME280_humidity;BME280_pressure;Samples;Min_cycle;Max_cycle;Signal;HPM_P1;HPM_P2
2023/03/10 00:00:07;;;;;;;10.55;1.45;;;;;;;;;;5024056;28;20056;-78
2023/03/10 00:02:34;;;;;;;12.90;1.83;;;;;;;;;;5024331;28;20069;-78
2023/03/10 00:05:01;;;;;;;10.65;1.15;;;;;;;;;;5025772;28;20526;-78
2023/03/10 00:07:31;;;;;;;11.75;1.85;;;;;;;;;;5022729;28;20128;-78
2023/03/10 00:09:57;;;;;;;10.18;1.40;;;;;;;;;;5024620;28;20049;-78
2023/03/10 00:12:26;;;;;;;11.90;1.50;;;;;;;;;;5024867;28;20041;-78
2023/03/10 00:14:54;;;;;;;6.60;1.50;;;;;;;;;;5025830;28;20049;-78
2023/03/10 00:17:20;;;;;;;11.18;1.75;;;;;;;;;;5025781;28;20586;-78
2023/03/10 00:19:47;;;;;;;11.80;1.50;;;;;;;;;;5025552;28;20075;-78
2023/03/10 00:22:13;;;;;;;10.48;1.55;;;;;;;;;;5025986;28;20502;-78
2023/03/10 00:24:40;;;;;;;11.05;1.42;;;;;;;;;;5024082;28;20053;-77
2023/03/10 00:27:06;;;;;;;10.15;1.50;;;;;;;;;;5032732;28;20748;-78
2023/03/10 00:29:33;;;;;;;10.05;1.50;;;;;;;;;;5028536;28;20041;-78
2023/03/10 00:32:00;;;;;;;14.95;2.33;;;;;;;;;;5044669;28;20055;-78
2023/03/10 00:34:27;;;;;;;14.60;1.80;;;;;;;;;;5029310;28;20080;-79
2023/03/10 00:36:53;;;;;;;12.63;1.70;;;;;;;;;;5028535;28;20049;-78
2023/03/10 00:39:20;;;;;;;13.50;1.65;;;;;;;;;;5029429;28;20049;-78
2023/03/10 00:41:48;;;;;;;9.20;1.30;;;;;;;;;;5028369;28;20401;-78
2023/03/10 00:44:14;;;;;;;12.13;1.40;;;;;;;;;;5029101;28;20045;-77
2023/03/10 00:46:41;;;;;;;10.73;1.33;;;;;;;;;;5026720;28;20045;-77
2023/03/10 00:49:09;;;;;;;9.20;1.67;;;;;;;;;;5028140;28;20409;-77
2023/03/10 00:51:37;;;;;;;10.23;2.40;;;;;;;;;;5060679;28;20053;-77
2023/03/10 00:54:04;;;;;;;6.75;1.23;;;;;;;;;;5029592;28;20079;-77
2023/03/10 00:56:30;;;;;;;12.13;1.42;;;;;;;;;;5026794;28;20136;-76
2023/03/10 00:58:58;;;;;;;11.38;1.48;;;;;;;;;;5028080;28;20117;-76
2023/03/10 01:01:28;;;;;;;11.27;1.70;;;;;;;;;;5040145;28;20087;-77
2023/03/10 01:03:57;;;;;;;12.20;1.52;;;;;;;;;;5046842;28;20571;-79
2023/03/10 01:06:24;;;;;;;9.98;1.08;;;;;;;;;;5044863;28;20041;-77
2023/03/10 01:08:51;;;;;;;10.60;1.45;;;;;;;;;;5048664;28;20049;-77
2023/03/10 01:11:20;;;;;;;9.68;1.30;;;;;;;;;;5045266;28;20047;-77
2023/03/10 01:13:49;;;;;;;15.57;1.75;;;;;;;;;;5046222;28;20644;-77
2023/03/10 01:16:16;;;;;;;9.88;1.20;;;;;;;;;;5045663;28;20041;-77
2023/03/10 01:18:43;;;;;;;10.32;1.30;;;;;;;;;;5046659;28;20064;-77
2023/03/10 01:21:14;;;;;;;13.98;1.55;;;;;;;;;;5028553;28;20143;-77
2023/03/10 01:23:44;;;;;;;12.65;1.65;;;;;;;;;;5026050;28;20045;-77
2023/03/10 01:26:15;;;;;;;7.82;1.42;;;;;;;;;;4999611;28;20044;-77
2023/03/10 01:28:45;;;;;;;9.10;1.75;;;;;;;;;;5056447;28;20141;-77
2023/03/10 01:31:12;;;;;;;9.43;1.90;;;;;;;;;;5054608;28;20048;-77
2023/03/10 01:33:40;;;;;;;8.45;1.42;;;;;;;;;;5026150;28;20056;-77
2023/03/10 01:36:10;;;;;;;10.00;1.55;;;;;;;;;;5025569;28;20505;-77
2023/03/10 01:38:37;;;;;;;9.88;1.55;;;;;;;;;;5027033;28;20048;-77
2023/03/10 01:41:04;;;;;;;7.50;1.20;;;;;;;;;;5026222;28;20509;-77
2023/03/10 01:43:35;;;;;;;6.03;1.33;;;;;;;;;;5057865;28;20041;-77
2023/03/10 01:46:20;;;;;;;12.20;1.60;;;;;;;;;;5027084;28;20042;-77
2023/03/10 01:48:47;;;;;;;6.97;1.05;;;;;;;;;;5058909;28;20077;-78
2023/03/10 01:51:13;;;;;;;6.65;1.35;;;;;;;;;;5026102;28;20048;-77
2023/03/10 01:53:40;;;;;;;4.85;1.13;;;;;;;;;;5042691;28;20560;-77
2023/03/10 01:56:07;;;;;;;8.07;1.40;;;;;;;;;;5025762;28;20076;-78
2023/03/10 01:58:37;;;;;;;8.85;1.30;;;;;;;;;;5057318;28;20090;-77
2023/03/10 02:01:04;;;;;;;7.13;1.13;;;;;;;;;;5059319;28;20046;-77
2023/03/10 02:03:36;;;;;;;6.38;1.25;;;;;;;;;;5057631;28;20467;-76
2023/03/10 02:06:04;;;;;;;8.30;1.50;;;;;;;;;;5057966;28;20100;-78
2023/03/10 02:08:37;;;;;;;6.18;1.08;;;;;;;;;;5027145;28;20037;-78
2023/03/10 02:11:04;;;;;;;9.27;1.25;;;;;;;;;;5057804;28;20626;-76
2023/03/10 02:13:30;;;;;;;8.88;1.27;;;;;;;;;;5024205;28;20051;-79
2023/03/10 02:15:57;;;;;;;6.45;1.27;;;;;;;;;;5058672;28;20103;-78
2023/03/10 02:18:24;;;;;;;12.20;1.70;;;;;;;;;;5025963;28;20473;-78
2023/03/10 02:20:58;;;;;;;8.30;1.20;;;;;;;;;;5023740;28;20124;-78
2023/03/10 02:23:40;;;;;;;6.97;1.27;;;;;;;;;;5026489;28;20494;-79
2023/03/10 02:26:24;;;;;;;6.30;1.10;;;;;;;;;;5055741;28;20061;-78
2023/03/10 02:28:52;;;;;;;6.72;1.40;;;;;;;;;;5025452;28;20038;-78
2023/03/10 02:31:20;;;;;;;5.47;1.10;;;;;;;;;;5057819;28;20061;-78
2023/03/10 02:33:48;;;;;;;5.10;1.02;;;;;;;;;;5044416;28;20045;-78
2023/03/10 02:36:17;;;;;;;5.55;1.10;;;;;;;;;;5043535;28;20044;-78
2023/03/10 02:38:44;;;;;;;4.65;1.10;;;;;;;;;;5044446;28;20052;-78
2023/03/10 02:41:26;;;;;;;7.38;1.30;;;;;;;;;;5044873;28;20045;-78
2023/03/10 02:43:55;;;;;;;4.63;1.00;;;;;;;;;;5044314;28;20048;-78
2023/03/10 02:46:25;;;;;;;6.85;1.13;;;;;;;;;;5028197;28;20056;-77
2023/03/10 02:48:51;;;;;;;5.72;0.90;;;;;;;;;;5078757;28;20122;-78
2023/03/10 02:51:26;;;;;;;5.60;1.23;;;;;;;;;;5044201;28;20425;-78
2023/03/10 02:53:54;;;;;;;6.50;1.15;;;;;;;;;;5079162;28;20048;-77
2023/03/10 02:56:22;;;;;;;6.85;1.15;;;;;;;;;;5043826;28;20045;-77
2023/03/10 02:58:49;;;;;;;6.90;1.40;;;;;;;;;;5044845;28;20150;-78
2023/03/10 03:01:15;;;;;;;7.90;0.88;;;;;;;;;;5045714;28;20100;-77
2023/03/10 03:03:42;;;;;;;4.40;1.10;;;;;;;;;;5044938;28;20044;-78
2023/03/10 03:06:10;;;;;;;4.00;1.10;;;;;;;;;;5045154;28;20056;-77
2023/03/10 03:08:36;;;;;;;3.92;1.08;;;;;;;;;;5046663;28;20049;-78
2023/03/10 03:11:06;;;;;;;6.90;1.33;;;;;;;;;;5044040;28;20049;-78
2023/03/10 03:13:33;;;;;;;6.22;1.05;;;;;;;;;;5044714;28;20036;-78
2023/03/10 03:16:00;;;;;;;8.32;1.15;;;;;;;;;;5046584;28;20033;-77
2023/03/10 03:18:26;;;;;;;4.03;1.02;;;;;;;;;;5015626;28;20087;-78
2023/03/10 03:20:53;;;;;;;3.80;0.73;;;;;;;;;;5024258;28;20124;-77
2023/03/10 03:23:21;;;;;;;5.18;1.45;;;;;;;;;;5024913;28;20037;-79
2023/03/10 03:25:49;;;;;;;3.75;1.25;;;;;;;;;;5023871;28;20439;-78
2023/03/10 03:28:17;;;;;;;13.05;1.45;;;;;;;;;;5006903;28;20120;-77
2023/03/10 03:30:45;;;;;;;4.22;0.75;;;;;;;;;;5041132;28;20061;-77
2023/03/10 03:33:14;;;;;;;9.82;1.27;;;;;;;;;;5058554;28;20578;-77
2023/03/10 03:35:42;;;;;;;6.68;1.10;;;;;;;;;;5058254;28;20044;-78
2023/03/10 03:38:09;;;;;;;4.78;1.08;;;;;;;;;;5045254;28;20132;-77
2023/03/10 03:40:36;;;;;;;3.03;0.70;;;;;;;;;;5046554;28;20049;-78
2023/03/10 03:43:04;;;;;;;3.42;0.60;;;;;;;;;;5033186;28;20060;-76
2023/03/10 03:45:32;;;;;;;6.03;0.98;;;;;;;;;;5028850;28;20106;-77
2023/03/10 03:48:00;;;;;;;5.38;0.90;;;;;;;;;;5027524;28;20060;-77
2023/03/10 03:50:29;;;;;;;3.28;1.00;;;;;;;;;;5026841;28;20045;-77
2023/03/10 03:53:02;;;;;;;3.05;0.70;;;;;;;;;;5028408;28;20045;-77
2023/03/10 03:55:29;;;;;;;5.45;0.85;;;;;;;;;;5026249;28;20563;-77
2023/03/10 03:57:57;;;;;;;3.33;0.70;;;;;;;;;;5018186;28;20585;-78
2023/03/10 04:00:26;;;;;;;4.82;1.10;;;;;;;;;;5042828;28;20037;-78
2023/03/10 04:03:03;;;;;;;3.35;0.80;;;;;;;;;;5049045;28;20063;-77
2023/03/10 04:05:31;;;;;;;4.70;0.98;;;;;;;;;;5064301;28;20577;-77
2023/03/10 04:07:58;;;;;;;4.63;0.90;;;;;;;;;;5013414;28;20049;-77
2023/03/10 04:10:27;;;;;;;4.50;0.90;;;;;;;;;;5030646;28;20045;-78
2023/03/10 04:12:54;;;;;;;5.05;1.00;;;;;;;;;;5029444;28;20056;-79
2023/03/10 04:15:22;;;;;;;2.00;0.75;;;;;;;;;;5031391;28;20037;-76
2023/03/10 04:17:49;;;;;;;4.10;0.93;;;;;;;;;;5026904;28;20045;-77
2023/03/10 04:20:16;;;;;;;4.70;1.00;;;;;;;;;;5017520;28;20045;-76
2023/03/10 04:22:46;;;;;;;3.40;0.60;;;;;;;;;;5027446;28;20298;-77
2023/03/10 04:25:13;;;;;;;3.78;1.05;;;;;;;;;;5026130;28;20073;-77
2023/03/10 04:27:40;;;;;;;4.80;0.75;;;;;;;;;;5027035;28;20600;-77
2023/03/10 04:30:07;;;;;;;5.93;1.00;;;;;;;;;;5026820;28;20099;-77
2023/03/10 04:32:36;;;;;;;8.23;0.90;;;;;;;;;;5043669;28;20057;-77
2023/03/10 04:35:04;;;;;;;2.38;0.60;;;;;;;;;;5048855;28;20037;-77
2023/03/10 04:37:32;;;;;;;2.78;0.63;;;;;;;;;;5025972;28;20065;-77
2023/03/10 04:40:00;;;;;;;2.03;0.75;;;;;;;;;;5025930;28;20481;-79
2023/03/10 04:42:27;;;;;;;3.05;0.80;;;;;;;;;;5026777;28;20042;-77
2023/03/10 04:44:56;;;;;;;6.07;0.88;;;;;;;;;;5060049;28;20061;-78
2023/03/10 04:47:23;;;;;;;4.55;0.80;;;;;;;;;;5026585;28;20141;-77
2023/03/10 04:49:50;;;;;;;2.70;0.73;;;;;;;;;;5028785;28;20473;-77
2023/03/10 04:52:16;;;;;;;2.30;0.60;;;;;;;;;;5059755;28;20111;-76
2023/03/10 04:54:43;;;;;;;4.07;0.65;;;;;;;;;;5028115;28;20129;-78
2023/03/10 04:57:09;;;;;;;2.75;0.70;;;;;;;;;;5026546;28;20061;-78
2023/03/10 04:59:36;;;;;;;3.83;0.68;;;;;;;;;;5059863;28;20057;-77
2023/03/10 05:02:03;;;;;;;3.45;0.73;;;;;;;;;;5026374;28;20439;-78
2023/03/10 05:04:30;;;;;;;1.40;0.63;;;;;;;;;;5060669;28;20033;-77
2023/03/10 05:06:56;;;;;;;4.20;0.60;;;;;;;;;;5026152;28;20049;-77
2023/03/10 05:09:30;;;;;;;3.60;0.80;;;;;;;;;;5058240;28;20096;-79
2023/03/10 05:11:56;;;;;;;3.42;0.90;;;;;;;;;;5059943;28;20539;-77
2023/03/10 05:14:24;;;;;;;4.32;0.82;;;;;;;;;;5026782;28;20505;-77
2023/03/10 05:16:51;;;;;;;4.60;0.80;;;;;;;;;;5026898;28;20041;-77
2023/03/10 05:19:18;;;;;;;2.15;0.63;;;;;;;;;;5061203;28;20141;-78
2023/03/10 05:21:45;;;;;;;1.35;0.43;;;;;;;;;;5051844;28;20057;-78
2023/03/10 05:24:11;;;;;;;3.95;0.70;;;;;;;;;;5028211;28;20089;-78
2023/03/10 05:26:38;;;;;;;4.18;0.63;;;;;;;;;;5056368;28;20045;-77
2023/03/10 05:29:04;;;;;;;3.28;0.63;;;;;;;;;;5049683;28;20428;-76
2023/03/10 05:31:46;;;;;;;2.33;0.52;;;;;;;;;;5042453;28;20049;-78
2023/03/10 05:34:19;;;;;;;4.68;0.70;;;;;;;;;;5047454;28;20074;-77
2023/03/10 05:36:47;;;;;;;3.15;0.90;;;;;;;;;;5045140;28;20041;-77
2023/03/10 05:39:15;;;;;;;5.97;0.77;;;;;;;;;;5048104;28;20427;-76
2023/03/10 05:41:45;;;;;;;3.75;0.70;;;;;;;;;;5045269;28;20411;-77
2023/03/10 05:44:11;;;;;;;3.58;0.55;;;;;;;;;;5045815;28;20049;-77
2023/03/10 05:46:39;;;;;;;4.90;0.70;;;;;;;;;;5045679;28;20045;-78
2023/03/10 05:49:06;;;;;;;3.53;0.50;;;;;;;;;;5046328;28;20041;-76
2023/03/10 05:51:33;;;;;;;1.65;0.60;;;;;;;;;;5044972;28;20068;-78
2023/03/10 05:54:05;;;;;;;1.20;0.52;;;;;;;;;;5064406;28;20080;-77
2023/03/10 05:56:32;;;;;;;1.50;0.57;;;;;;;;;;5027516;28;20041;-78
2023/03/10 05:59:00;;;;;;;1.25;0.52;;;;;;;;;;5029597;28;20417;-77
2023/03/10 06:01:30;;;;;;;1.30;0.43;;;;;;;;;;5063393;28;20095;-77
2023/03/10 06:03:56;;;;;;;2.05;0.60;;;;;;;;;;5047081;28;20044;-77
2023/03/10 06:06:23;;;;;;;2.22;0.50;;;;;;;;;;5029014;28;20106;-76
2023/03/10 06:08:49;;;;;;;1.30;0.40;;;;;;;;;;5047915;28;20128;-78
2023/03/10 06:11:17;;;;;;;2.88;0.40;;;;;;;;;;5046972;28;20181;-79
2023/03/10 06:13:43;;;;;;;1.70;0.50;;;;;;;;;;5062658;28;20459;-78
2023/03/10 06:16:10;;;;;;;1.58;0.40;;;;;;;;;;5062758;28;20067;-77
2023/03/10 06:18:37;;;;;;;2.42;0.60;;;;;;;;;;5047571;28;20069;-79
2023/03/10 06:21:07;;;;;;;2.03;0.60;;;;;;;;;;5047275;28;20045;-79
2023/03/10 06:23:34;;;;;;;1.90;0.63;;;;;;;;;;5029492;28;20045;-79
2023/03/10 06:26:02;;;;;;;1.25;0.60;;;;;;;;;;5025342;28;20072;-78
2023/03/10 06:28:32;;;;;;;2.92;0.68;;;;;;;;;;5035777;28;20104;-78
2023/03/10 06:31:00;;;;;;;2.47;0.40;;;;;;;;;;5030778;28;20067;-78
2023/03/10 06:33:27;;;;;;;1.17;0.50;;;;;;;;;;5028868;28;20041;-78
2023/03/10 06:35:53;;;;;;;3.55;0.50;;;;;;;;;;5047365;28;20047;-78
2023/03/10 06:38:20;;;;;;;3.50;0.80;;;;;;;;;;5047262;28;20053;-78
2023/03/10 06:40:46;;;;;;;3.00;0.65;;;;;;;;;;5044050;28;20044;-78
2023/03/10 06:43:13;;;;;;;2.17;0.47;;;;;;;;;;5043276;28;20434;-78
2023/03/10 06:45:44;;;;;;;0.95;0.40;;;;;;;;;;5025648;28;20076;-79
2023/03/10 06:48:11;;;;;;;5.68;0.60;;;;;;;;;;5039469;28;20056;-79
2023/03/10 06:50:43;;;;;;;2.97;0.63;;;;;;;;;;5025160;28;20043;-78
2023/03/10 06:53:09;;;;;;;2.38;1.05;;;;;;;;;;5058240;28;20045;-78
2023/03/10 06:55:36;;;;;;;2.88;0.90;;;;;;;;;;5051413;28;20485;-78
2023/03/10 06:58:03;;;;;;;1.67;0.50;;;;;;;;;;5024048;28;20049;-78
2023/03/10 07:00:29;;;;;;;1.80;0.40;;;;;;;;;;5047026;28;20048;-78
2023/03/10 07:02:56;;;;;;;1.67;0.50;;;;;;;;;;5048194;28;20515;-78
2023/03/10 07:05:23;;;;;;;2.88;0.60;;;;;;;;;;5044250;28;20044;-77
2023/03/10 07:07:50;;;;;;;1.52;0.50;;;;;;;;;;5019515;28;20073;-78
2023/03/10 07:10:16;;;;;;;3.95;0.60;;;;;;;;;;5024758;28;20593;-78
2023/03/10 07:12:43;;;;;;;2.30;0.60;;;;;;;;;;5025784;28;20402;-79
2023/03/10 07:15:10;;;;;;;2.92;0.50;;;;;;;;;;5026546;28;20068;-78
2023/03/10 07:17:36;;;;;;;1.02;0.50;;;;;;;;;;5024978;28;20458;-77
2023/03/10 07:20:03;;;;;;;2.67;0.57;;;;;;;;;;5025644;28;20105;-78
2023/03/10 07:22:30;;;;;;;3.92;0.63;;;;;;;;;;5025022;28;20473;-77
2023/03/10 07:24:57;;;;;;;5.53;0.85;;;;;;;;;;5023160;28;20515;-78
2023/03/10 07:27:23;;;;;;;1.95;0.60;;;;;;;;;;5024155;28;20037;-78
2023/03/10 07:29:50;;;;;;;1.35;0.70;;;;;;;;;;5028000;28;20045;-78
2023/03/10 07:32:16;;;;;;;1.98;0.50;;;;;;;;;;5044164;28;20045;-77
2023/03/10 07:34:43;;;;;;;2.85;0.68;;;;;;;;;;5043884;28;20076;-78
2023/03/10 07:37:10;;;;;;;1.67;0.55;;;;;;;;;;5047840;28;20041;-78
2023/03/10 07:39:36;;;;;;;4.57;0.77;;;;;;;;;;5064913;28;20098;-78
2023/03/10 07:42:03;;;;;;;2.05;0.55;;;;;;;;;;5050375;28;20037;-78
2023/03/10 07:44:31;;;;;;;3.90;0.70;;;;;;;;;;5048782;28;20064;-78
2023/03/10 07:46:57;;;;;;;1.60;0.70;;;;;;;;;;5048914;28;20490;-78
2023/03/10 07:49:24;;;;;;;3.15;0.60;;;;;;;;;;5049831;28;20056;-78
2023/03/10 07:51:50;;;;;;;4.82;1.00;;;;;;;;;;5047014;28;20041;-78
2023/03/10 07:54:17;;;;;;;4.63;0.70;;;;;;;;;;5049355;28;20049;-78
2023/03/10 07:56:44;;;;;;;1.42;0.60;;;;;;;;;;5047762;28;20445;-79
2023/03/10 07:59:10;;;;;;;1.52;0.60;;;;;;;;;;5049950;28;20048;-78
2023/03/10 08:01:37;;;;;;;3.80;0.80;;;;;;;;;;5049508;28;20052;-78
2023/03/10 08:04:05;;;;;;;2.83;0.85;;;;;;;;;;5049172;28;20064;-78
2023/03/10 08:06:34;;;;;;;3.78;0.70;;;;;;;;;;5079671;28;20045;-78
2023/03/10 08:09:01;;;;;;;5.55;0.80;;;;;;;;;;5030853;28;20037;-78
2023/03/10 08:11:28;;;;;;;2.35;0.68;;;;;;;;;;5033123;28;20436;-78
2023/03/10 08:13:55;;;;;;;5.53;0.90;;;;;;;;;;5029069;28;20195;-78
2023/03/10 08:16:22;;;;;;;4.05;1.23;;;;;;;;;;5029040;28;20709;-76
2023/03/10 08:18:53;;;;;;;3.13;0.88;;;;;;;;;;5029680;28;20072;-78
2023/03/10 08:21:20;;;;;;;4.30;0.65;;;;;;;;;;5027603;28;20109;-79
2023/03/10 08:23:46;;;;;;;5.47;1.05;;;;;;;;;;5028367;28;20045;-79
2023/03/10 08:26:15;;;;;;;3.85;0.70;;;;;;;;;;5023597;28;20454;-78
2023/03/10 08:28:41;;;;;;;2.15;0.73;;;;;;;;;;5027539;28;20120;-78
2023/03/10 08:31:13;;;;;;;4.03;1.02;;;;;;;;;;5030316;28;20046;-77
2023/03/10 08:33:40;;;;;;;2.58;0.95;;;;;;;;;;5046119;28;20476;-79
2023/03/10 08:36:20;;;;;;;3.83;0.90;;;;;;;;;;5048876;28;20048;-78
2023/03/10 08:38:47;;;;;;;3.33;0.80;;;;;;;;;;5048778;28;20079;-77
2023/03/10 08:41:19;;;;;;;4.03;0.50;;;;;;;;;;5047833;28;20045;-78
2023/03/10 08:43:46;;;;;;;3.63;0.80;;;;;;;;;;5047285;28;20045;-79
2023/03/10 08:46:16;;;;;;;2.40;0.60;;;;;;;;;;5046838;28;20408;-79
2023/03/10 08:48:42;;;;;;;2.45;0.70;;;;;;;;;;5046744;28;20032;-78
2023/03/10 08:51:09;;;;;;;2.20;0.63;;;;;;;;;;5046743;28;20041;-78
2023/03/10 08:53:39;;;;;;;3.63;0.90;;;;;;;;;;5036564;28;20503;-78
2023/03/10 08:56:06;;;;;;;4.30;0.80;;;;;;;;;;5028110;28;20037;-77
2023/03/10 08:58:32;;;;;;;2.80;0.60;;;;;;;;;;5026959;28;20030;-77
2023/03/10 09:00:59;;;;;;;4.82;0.73;;;;;;;;;;5028672;28;20103;-77
2023/03/10 09:03:26;;;;;;;7.93;0.80;;;;;;;;;;5028277;28;20038;-77
2023/03/10 09:05:56;;;;;;;3.75;0.70;;;;;;;;;;5007080;28;20046;-79
2023/03/10 09:08:23;;;;;;;3.63;0.60;;;;;;;;;;5040263;28;20053;-78
2023/03/10 09:10:53;;;;;;;5.05;1.02;;;;;;;;;;5007428;28;20112;-80
2023/03/10 09:13:19;;;;;;;5.70;0.68;;;;;;;;;;5009086;28;20149;-78
2023/03/10 09:15:46;;;;;;;5.05;0.88;;;;;;;;;;5010012;28;20128;-78
2023/03/10 09:18:14;;;;;;;2.97;0.80;;;;;;;;;;5008641;28;20070;-78
2023/03/10 09:20:41;;;;;;;4.50;0.80;;;;;;;;;;5012865;28;20046;-79
2023/03/10 09:23:08;;;;;;;8.68;1.33;;;;;;;;;;5012034;28;20034;-76
2023/03/10 09:25:34;;;;;;;2.15;0.75;;;;;;;;;;4991212;28;20149;-76
2023/03/10 09:28:01;;;;;;;3.15;0.70;;;;;;;;;;5010851;28;20041;-77
2023/03/10 09:30:27;;;;;;;3.92;0.73;;;;;;;;;;5021103;28;20119;-77
2023/03/10 09:32:54;;;;;;;5.13;0.60;;;;;;;;;;5028685;28;20429;-75
2023/03/10 09:35:21;;;;;;;3.58;0.70;;;;;;;;;;5028955;28;20541;-77
2023/03/10 09:37:48;;;;;;;4.70;0.60;;;;;;;;;;5027243;28;20045;-77
2023/03/10 09:40:17;;;;;;;1.58;0.45;;;;;;;;;;5028513;28;20386;-78
2023/03/10 09:42:43;;;;;;;2.10;0.52;;;;;;;;;;5026933;28;20037;-78
2023/03/10 09:45:22;;;;;;;5.18;0.90;;;;;;;;;;5025719;28;20065;-78
2023/03/10 09:47:56;;;;;;;4.95;0.82;;;;;;;;;;5029991;28;20579;-77
2023/03/10 09:50:28;;;;;;;6.40;1.10;;;;;;;;;;5029973;28;20045;-78
2023/03/10 09:52:55;;;;;;;3.17;0.80;;;;;;;;;;5030074;28;20049;-77
2023/03/10 09:55:24;;;;;;;4.07;0.70;;;;;;;;;;5029637;28;20072;-78
2023/03/10 09:57:55;;;;;;;4.05;0.80;;;;;;;;;;5031523;28;20054;-78
2023/03/10 10:00:33;;;;;;;5.43;0.80;;;;;;;;;;5030032;28;20136;-79
2023/03/10 10:03:05;;;;;;;3.92;0.80;;;;;;;;;;5030491;28;20489;-78
2023/03/10 10:05:36;;;;;;;6.65;0.60;;;;;;;;;;5027041;28;20136;-78
2023/03/10 10:08:05;;;;;;;4.18;0.90;;;;;;;;;;5026960;28;20053;-78
2023/03/10 10:10:35;;;;;;;4.32;0.90;;;;;;;;;;5059998;28;20064;-78
2023/03/10 10:13:10;;;;;;;4.05;0.90;;;;;;;;;;5026652;28;20156;-78
2023/03/10 10:15:39;;;;;;;3.35;0.82;;;;;;;;;;5028211;28;20048;-78
2023/03/10 10:18:13;;;;;;;5.28;1.00;;;;;;;;;;5026721;28;20464;-78
2023/03/10 10:20:57;;;;;;;3.65;0.85;;;;;;;;;;5026716;28;20132;-76
2023/03/10 10:23:24;;;;;;;2.30;0.70;;;;;;;;;;5026498;28;20045;-77
2023/03/10 10:25:51;;;;;;;5.47;1.02;;;;;;;;;;5022749;28;20080;-78
2023/03/10 10:28:19;;;;;;;3.85;0.65;;;;;;;;;;5025665;28;20048;-77
2023/03/10 10:30:46;;;;;;;2.95;0.60;;;;;;;;;;5027352;28;20103;-77
2023/03/10 10:33:13;;;;;;;3.60;0.85;;;;;;;;;;5060840;28;20113;-77
2023/03/10 10:35:41;;;;;;;7.88;0.88;;;;;;;;;;5044682;28;20131;-78
2023/03/10 10:38:08;;;;;;;5.18;1.25;;;;;;;;;;5046243;28;20044;-77
2023/03/10 10:40:44;;;;;;;4.63;0.80;;;;;;;;;;5045172;28;20295;-77
2023/03/10 10:43:15;;;;;;;4.47;0.90;;;;;;;;;;5027591;28;20127;-79
2023/03/10 10:45:42;;;;;;;4.28;0.73;;;;;;;;;;5046314;28;20044;-78
2023/03/10 10:48:28;;;;;;;3.00;0.90;;;;;;;;;;5056815;28;20394;-78
2023/03/10 10:50:55;;;;;;;4.55;0.70;;;;;;;;;;5003859;28;20057;-77
2023/03/10 10:53:23;;;;;;;3.33;0.80;;;;;;;;;;5027526;28;20048;-78
2023/03/10 10:55:58;;;;;;;4.65;1.00;;;;;;;;;;5046591;28;20072;-79
2023/03/10 10:58:27;;;;;;;4.53;1.38;;;;;;;;;;5050176;28;20041;-80
2023/03/10 11:00:57;;;;;;;5.68;0.95;;;;;;;;;;5014080;28;20053;-78
2023/03/10 11:03:24;;;;;;;5.10;1.05;;;;;;;;;;5050973;28;20037;-78
2023/03/10 11:05:50;;;;;;;4.70;1.08;;;;;;;;;;5028863;28;20049;-78
2023/03/10 11:08:18;;;;;;;3.95;0.90;;;;;;;;;;5022407;28;20060;-78
2023/03/10 11:10:48;;;;;;;3.83;0.90;;;;;;;;;;5021366;28;20148;-78
2023/03/10 11:13:18;;;;;;;3.40;0.77;;;;;;;;;;5025160;28;20050;-77
2023/03/10 11:15:50;;;;;;;8.50;1.33;;;;;;;;;;5046066;28;20045;-79
2023/03/10 11:18:30;;;;;;;7.35;1.17;;;;;;;;;;5046753;28;20437;-78
2023/03/10 11:21:00;;;;;;;6.35;1.05;;;;;;;;;;5047468;28;20072;-78
2023/03/10 11:23:45;;;;;;;3.60;0.90;;;;;;;;;;5048883;28;20098;-78
2023/03/10 11:26:30;;;;;;;5.70;0.83;;;;;;;;;;5046356;28;20051;-78
2023/03/10 11:29:00;;;;;;;5.32;0.90;;;;;;;;;;5029144;28;20045;-78
2023/03/10 11:31:43;;;;;;;7.78;1.00;;;;;;;;;;5028195;28;20409;-79
2023/03/10 11:34:10;;;;;;;5.72;1.05;;;;;;;;;;5031049;28;20087;-78
2023/03/10 11:36:51;;;;;;;6.28;1.10;;;;;;;;;;5010736;28;20115;-77
2023/03/10 11:39:34;;;;;;;4.70;1.10;;;;;;;;;;5048951;28;20508;-78
2023/03/10 11:42:09;;;;;;;5.90;0.90;;;;;;;;;;5046115;28;20118;-79
2023/03/10 11:44:42;;;;;;;3.33;0.88;;;;;;;;;;5047998;28;20045;-77
2023/03/10 11:47:14;;;;;;;4.03;0.98;;;;;;;;;;5046453;28;20516;-77
2023/03/10 11:49:44;;;;;;;4.50;0.80;;;;;;;;;;5048543;28;20144;-78
2023/03/10 11:52:21;;;;;;;3.95;0.90;;;;;;;;;;5047523;28;20489;-78
2023/03/10 11:54:49;;;;;;;7.78;1.45;;;;;;;;;;5046299;28;20404;-77
2023/03/10 11:57:18;;;;;;;4.28;0.75;;;;;;;;;;5027314;28;20033;-78
2023/03/10 11:59:58;;;;;;;6.30;1.20;;;;;;;;;;5045674;28;20572;-78
2023/03/10 12:02:28;;;;;;;4.80;1.00;;;;;;;;;;5031213;28;20045;-79
2023/03/10 12:05:07;;;;;;;6.80;0.95;;;;;;;;;;5009586;28;20060;-79
2023/03/10 12:07:37;;;;;;;4.90;1.00;;;;;;;;;;5027465;28;20059;-79
2023/03/10 12:10:09;;;;;;;2.85;0.80;;;;;;;;;;5045573;28;20040;-79
2023/03/10 12:12:38;;;;;;;4.50;0.65;;;;;;;;;;5044719;28;20040;-79
2023/03/10 12:15:16;;;;;;;6.35;1.10;;;;;;;;;;5046071;28;20128;-80
2023/03/10 12:17:44;;;;;;;3.85;0.98;;;;;;;;;;5047197;28;20045;-79
2023/03/10 12:20:14;;;;;;;2.40;0.70;;;;;;;;;;5046087;28;20424;-78
2023/03/10 12:22:46;;;;;;;6.30;1.10;;;;;;;;;;5045050;28;20033;-77
2023/03/10 12:25:34;;;;;;;3.45;0.93;;;;;;;;;;5029821;28;20056;-78
2023/03/10 12:28:16;;;;;;;4.10;1.05;;;;;;;;;;5033153;28;20065;-77
2023/03/10 12:30:42;;;;;;;6.80;0.73;;;;;;;;;;5059343;28;20455;-77
2023/03/10 12:33:28;;;;;;;4.45;0.70;;;;;;;;;;5050710;28;20044;-77
2023/03/10 12:36:01;;;;;;;4.50;1.00;;;;;;;;;;5048474;28;20118;-78
2023/03/10 12:38:53;;;;;;;4.38;0.82;;;;;;;;;;5048868;28;20469;-77
2023/03/10 12:41:26;;;;;;;3.65;1.15;;;;;;;;;;5019655;28;20053;-77
2023/03/10 12:43:52;;;;;;;3.80;0.80;;;;;;;;;;5030905;28;20053;-77
2023/03/10 12:46:38;;;;;;;6.72;1.23;;;;;;;;;;5032057;28;20049;-77
2023/03/10 12:49:16;;;;;;;4.15;1.10;;;;;;;;;;5031085;28;20042;-78
2023/03/10 12:51:46;;;;;;;4.93;0.93;;;;;;;;;;5033534;28;20116;-77
2023/03/10 12:54:31;;;;;;;3.75;0.70;;;;;;;;;;5051080;28;20045;-77
2023/03/10 12:57:08;;;;;;;3.58;0.90;;;;;;;;;;5049001;28;20041;-78
2023/03/10 13:00:05;;;;;;;3.78;0.75;;;;;;;;;;5049566;28;20061;-78
2023/03/10 13:02:56;;;;;;;3.28;0.70;;;;;;;;;;5049963;28;20059;-78
2023/03/10 13:05:28;;;;;;;4.82;1.02;;;;;;;;;;5048444;28;20125;-78
2023/03/10 13:07:57;;;;;;;4.63;0.80;;;;;;;;;;5048222;28;20068;-79
2023/03/10 13:10:24;;;;;;;1.88;0.60;;;;;;;;;;5048570;28;20116;-78
2023/03/10 13:12:58;;;;;;;2.60;0.90;;;;;;;;;;5047992;28;20041;-79
2023/03/10 13:15:29;;;;;;;3.38;0.60;;;;;;;;;;5048920;28;20409;-79
2023/03/10 13:18:14;;;;;;;1.73;0.55;;;;;;;;;;5048888;28;20048;-78
2023/03/10 13:20:41;;;;;;;1.25;0.30;;;;;;;;;;5010333;28;20494;-79
2023/03/10 13:23:33;;;;;;;1.02;0.30;;;;;;;;;;5030906;28;20048;-78
2023/03/10 13:26:02;;;;;;;0.75;0.30;;;;;;;;;;5063539;28;20207;-78
2023/03/10 13:28:30;;;;;;;1.45;0.25;;;;;;;;;;5046642;28;20044;-78
2023/03/10 13:31:08;;;;;;;3.15;0.30;;;;;;;;;;5046767;28;20110;-77
2023/03/10 13:33:35;;;;;;;2.75;0.45;;;;;;;;;;5047725;28;20163;-77
2023/03/10 13:36:22;;;;;;;3.40;0.47;;;;;;;;;;5046904;28;20048;-78
2023/03/10 13:38:49;;;;;;;5.55;0.70;;;;;;;;;;5014046;28;20083;-78
2023/03/10 13:41:15;;;;;;;1.52;0.38;;;;;;;;;;5046764;28;20037;-78
2023/03/10 13:43:43;;;;;;;3.90;0.50;;;;;;;;;;5047631;28;20041;-77
2023/03/10 13:46:13;;;;;;;3.35;0.50;;;;;;;;;;5048301;28;20053;-78
2023/03/10 13:48:41;;;;;;;1.67;0.50;;;;;;;;;;5049189;28;20045;-79
2023/03/10 13:51:17;;;;;;;1.42;0.35;;;;;;;;;;5030727;28;20067;-78
2023/03/10 13:53:45;;;;;;;4.18;0.45;;;;;;;;;;5024618;28;20087;-79
2023/03/10 13:56:19;;;;;;;2.58;0.40;;;;;;;;;;5025177;28;20045;-78
2023/03/10 13:58:47;;;;;;;2.30;0.52;;;;;;;;;;5026200;28;20049;-78
2023/03/10 14:01:16;;;;;;;3.40;0.40;;;;;;;;;;5040569;28;20047;-78
2023/03/10 14:03:56;;;;;;;5.15;1.80;;;;;;;;;;5033572;28;20045;-76
2023/03/10 14:06:27;;;;;;;2.22;0.40;;;;;;;;;;5020959;28;20107;-78
2023/03/10 14:08:54;;;;;;;0.95;0.30;;;;;;;;;;5026698;28;20124;-79
2023/03/10 14:11:29;;;;;;;1.83;0.50;;;;;;;;;;5025568;28;20048;-79
2023/03/10 14:13:55;;;;;;;1.38;0.30;;;;;;;;;;5025123;28;20068;-78
2023/03/10 14:16:42;;;;;;;2.63;0.50;;;;;;;;;;5027927;28;20572;-78
2023/03/10 14:19:09;;;;;;;0.73;0.22;;;;;;;;;;5048663;28;20069;-77
2023/03/10 14:21:38;;;;;;;1.15;0.50;;;;;;;;;;5018959;28;20037;-76
2023/03/10 14:24:13;;;;;;;1.10;0.50;;;;;;;;;;5027352;28;20042;-79
2023/03/10 14:26:41;;;;;;;1.90;0.50;;;;;;;;;;5030540;28;20041;-79
2023/03/10 14:29:15;;;;;;;2.65;0.60;;;;;;;;;;5031691;28;20159;-79
2023/03/10 14:31:42;;;;;;;2.72;0.70;;;;;;;;;;5035397;28;20064;-78
2023/03/10 14:34:11;;;;;;;1.70;0.43;;;;;;;;;;5029073;28;20037;-80
2023/03/10 14:36:38;;;;;;;2.08;0.40;;;;;;;;;;5028625;28;20156;-78
2023/03/10 14:39:04;;;;;;;0.98;0.30;;;;;;;;;;5026998;28;20547;-79
2023/03/10 14:41:33;;;;;;;2.88;0.82;;;;;;;;;;5026447;28;20072;-79
2023/03/10 14:44:00;;;;;;;2.53;0.60;;;;;;;;;;5027209;28;20049;-78
2023/03/10 14:46:27;;;;;;;3.17;0.55;;;;;;;;;;5024771;28;20033;-78
2023/03/10 14:48:54;;;;;;;1.50;0.50;;;;;;;;;;5026605;28;20270;-78
2023/03/10 14:51:21;;;;;;;0.98;0.43;;;;;;;;;;5025143;28;20045;-78
2023/03/10 14:54:01;;;;;;;2.13;0.55;;;;;;;;;;5025143;28;20132;-77